createdAt,value
2023-05-20T00:00:17.052Z,8.77
2023-05-20T00:02:43.412Z,8.23
2023-05-20T00:05:09.814Z,8.68
2023-05-20T00:07:36.115Z,8.88
2023-05-20T00:10:04.144Z,8.13
2023-05-20T00:12:31.605Z,8.27
2023-05-20T00:14:57.900Z,8.43
2023-05-20T00:17:24.181Z,8.93
2023-05-20T00:19:50.524Z,8.30
2023-05-20T00:22:18.895Z,7.97
2023-05-20T00:24:55.113Z,8.55
2023-05-20T00:27:21.404Z,8.23
2023-05-20T00:29:51.538Z,8.52
2023-05-20T00:32:17.838Z,8.85
2023-05-20T00:34:49.539Z,7.70
2023-05-20T00:37:15.833Z,7.57
2023-05-20T00:39:52.070Z,7.85
2023-05-20T00:42:24.526Z,8.10
2023-05-20T00:44:52.657Z,7.80
2023-05-20T00:47:19.048Z,8.27
2023-05-20T00:49:50.555Z,7.88
2023-05-20T00:52:20.652Z,8.25
2023-05-20T00:54:51.607Z,7.30
2023-05-20T00:57:17.892Z,8.20
2023-05-20T00:59:44.931Z,7.40
2023-05-20T01:02:11.333Z,7.60
2023-05-20T01:04:37.649Z,7.38
2023-05-20T01:07:03.910Z,7.07
2023-05-20T01:09:30.212Z,7.30
2023-05-20T01:11:56.507Z,7.13
2023-05-20T01:14:24.489Z,7.50
2023-05-20T01:16:50.747Z,7.55
2023-05-20T01:19:17.175Z,7.57
2023-05-20T01:21:43.702Z,6.55
2023-05-20T01:24:13.451Z,7.80
2023-05-20T01:26:39.976Z,6.57
2023-05-20T01:29:06.266Z,7.30
2023-05-20T01:31:32.624Z,7.28
2023-05-20T01:36:30.275Z,6.68
2023-05-20T01:38:56.629Z,7.60
2023-05-20T01:41:23.166Z,7.43
2023-05-20T01:43:49.485Z,7.32
2023-05-20T01:46:21.600Z,6.93
2023-05-20T01:48:47.868Z,7.03
2023-05-20T01:51:15.176Z,7.10
2023-05-20T01:53:41.414Z,6.90
2023-05-20T01:56:14.657Z,7.20
2023-05-20T01:58:43.598Z,6.78
2023-05-20T02:01:12.187Z,6.80
2023-05-20T02:03:38.430Z,6.40
2023-05-20T02:06:05.917Z,6.47
2023-05-20T02:08:32.193Z,6.60
2023-05-20T02:10:58.453Z,6.18
2023-05-20T02:13:27.839Z,6.20
2023-05-20T02:15:56.966Z,7.20
2023-05-20T02:18:23.388Z,6.82
2023-05-20T02:20:49.634Z,7.15
2023-05-20T02:23:15.977Z,6.18
2023-05-20T02:25:42.343Z,6.78
2023-05-20T02:28:08.608Z,6.45
2023-05-20T02:30:37.171Z,5.63
2023-05-20T02:33:05.819Z,6.45
2023-05-20T02:35:33.712Z,6.03
2023-05-20T02:38:04.677Z,6.22
2023-05-20T02:40:30.954Z,6.72
2023-05-20T02:42:57.252Z,5.90
2023-05-20T02:45:25.057Z,6.10
2023-05-20T02:47:51.369Z,6.07
2023-05-20T02:50:17.805Z,6.97
2023-05-20T02:52:46.762Z,6.28
2023-05-20T02:55:12.991Z,5.75
2023-05-20T02:57:39.313Z,6.03
2023-05-20T03:00:09.059Z,6.20
2023-05-20T03:02:37.436Z,5.72
2023-05-20T03:05:03.705Z,5.78
2023-05-20T03:07:32.422Z,5.68
2023-05-20T03:09:58.705Z,6.40
2023-05-20T03:12:25.819Z,6.13
2023-05-20T03:14:52.066Z,6.40
2023-05-20T03:17:21.966Z,5.72
2023-05-20T03:19:52.861Z,6.50
2023-05-20T03:22:24.225Z,6.13
2023-05-20T03:24:50.545Z,6.10
2023-05-20T03:27:16.798Z,5.93
2023-05-20T03:29:43.078Z,6.15
2023-05-20T03:32:12.599Z,6.13
2023-05-20T03:34:38.861Z,5.82
2023-05-20T03:37:10.167Z,6.07
2023-05-20T03:39:42.768Z,5.85
2023-05-20T03:42:09.061Z,6.20
2023-05-20T03:44:35.335Z,6.38
2023-05-20T03:47:01.733Z,6.22
2023-05-20T03:49:28.112Z,6.40
2023-05-20T03:51:54.481Z,5.85
2023-05-20T03:54:20.843Z,6.03
2023-05-20T03:56:48.810Z,5.72
2023-05-20T03:59:15.415Z,5.90
2023-05-20T04:01:41.853Z,5.85
2023-05-20T04:04:09.437Z,5.43
2023-05-20T04:06:41.016Z,6.03
2023-05-20T04:09:07.488Z,6.03
2023-05-20T04:11:33.898Z,5.80
2023-05-20T04:14:00.169Z,6.57
2023-05-20T04:16:31.300Z,5.78
2023-05-20T04:18:59.408Z,6.00
2023-05-20T04:21:30.869Z,5.88
2023-05-20T04:23:57.307Z,5.88
2023-05-20T04:26:28.644Z,5.50
2023-05-20T04:28:59.302Z,5.88
2023-05-20T04:31:29.407Z,6.25
2023-05-20T04:33:55.819Z,5.90
2023-05-20T04:36:22.217Z,6.20
2023-05-20T04:38:49.969Z,6.13
2023-05-20T04:41:21.299Z,6.00
2023-05-20T04:43:47.624Z,6.13
2023-05-20T04:46:21.891Z,6.30
2023-05-20T04:48:48.145Z,6.40
2023-05-20T04:51:14.601Z,6.05
2023-05-20T04:53:40.864Z,6.43
2023-05-20T04:56:10.341Z,5.50
2023-05-20T04:58:36.620Z,6.43
2023-05-20T05:01:03.727Z,6.88
2023-05-20T05:03:30.050Z,6.32
2023-05-20T05:05:58.798Z,6.00
2023-05-20T05:08:30.729Z,6.60
2023-05-20T05:10:57.034Z,6.25
2023-05-20T05:13:23.463Z,5.80
2023-05-20T05:15:49.707Z,6.38
2023-05-20T05:18:16.065Z,6.45
2023-05-20T05:20:42.390Z,5.93
2023-05-20T05:23:08.667Z,6.80
2023-05-20T05:25:37.667Z,6.05
2023-05-20T05:28:04.351Z,5.85
2023-05-20T05:30:30.704Z,6.45
2023-05-20T05:32:57.198Z,5.72
2023-05-20T05:35:23.482Z,6.20
2023-05-20T05:37:49.758Z,6.25
2023-05-20T05:40:20.916Z,6.00
2023-05-20T05:42:51.635Z,5.82
2023-05-20T05:45:17.889Z,6.10
2023-05-20T05:47:48.303Z,5.40
2023-05-20T05:50:14.745Z,6.10
2023-05-20T05:52:42.070Z,6.40
2023-05-20T05:55:08.366Z,6.32
2023-05-20T06:00:09.578Z,6.00
2023-05-20T06:02:36.981Z,6.47
2023-05-20T06:05:03.626Z,6.57
2023-05-20T06:07:29.906Z,6.18
2023-05-20T06:09:56.168Z,6.82
2023-05-20T06:12:22.435Z,6.20
2023-05-20T06:14:51.339Z,6.82
2023-05-20T06:17:17.746Z,5.78
2023-05-20T06:19:45.600Z,6.35
2023-05-20T06:22:11.876Z,7.13
2023-05-20T06:24:38.145Z,6.50
2023-05-20T06:27:10.406Z,5.95
2023-05-20T06:29:38.833Z,6.30
2023-05-20T06:32:05.091Z,6.15
2023-05-20T06:34:34.280Z,7.00
2023-05-20T06:37:00.590Z,6.75
2023-05-20T06:39:26.862Z,6.63
2023-05-20T06:41:54.400Z,6.78
2023-05-20T06:44:20.662Z,6.40
2023-05-20T06:46:54.172Z,6.88
2023-05-20T06:49:23.982Z,7.20
2023-05-20T06:51:50.315Z,7.03
2023-05-20T06:54:16.552Z,7.30
2023-05-20T06:56:46.528Z,6.72
2023-05-20T06:59:16.065Z,7.17
2023-05-20T07:01:42.584Z,7.72
2023-05-20T07:04:08.921Z,7.22
2023-05-20T07:06:38.154Z,7.63
2023-05-20T07:09:04.434Z,6.97
2023-05-20T07:11:34.548Z,7.40
2023-05-20T07:14:04.569Z,8.45
2023-05-20T07:16:30.943Z,6.93
2023-05-20T07:18:59.571Z,7.00
2023-05-20T07:21:25.909Z,7.57
2023-05-20T07:23:52.281Z,7.72
2023-05-20T07:26:19.474Z,7.78
2023-05-20T07:28:46.380Z,7.63
2023-05-20T07:31:12.661Z,7.60
2023-05-20T07:33:38.957Z,7.05
2023-05-20T07:36:10.979Z,8.37
2023-05-20T07:38:38.552Z,7.10
2023-05-20T07:41:05.934Z,7.65
2023-05-20T07:43:32.198Z,7.95
2023-05-20T07:45:58.501Z,7.88
2023-05-20T07:48:28.570Z,7.90
2023-05-20T07:50:54.824Z,7.80
2023-05-20T07:53:21.521Z,8.05
2023-05-20T07:55:47.776Z,8.32
2023-05-20T07:58:16.803Z,7.97
2023-05-20T08:00:46.649Z,8.85
2023-05-20T08:03:13.169Z,8.40
2023-05-20T08:05:42.579Z,7.80
2023-05-20T08:08:08.838Z,8.55
2023-05-20T08:10:39.181Z,8.32
2023-05-20T08:13:05.438Z,8.00
2023-05-20T08:15:33.905Z,8.80
2023-05-20T08:18:00.588Z,8.70
2023-05-20T08:20:27.148Z,9.13
2023-05-20T08:22:53.457Z,8.15
2023-05-20T08:25:21.001Z,8.95
2023-05-20T08:27:47.273Z,8.65
2023-05-20T08:30:13.541Z,9.13
2023-05-20T08:32:41.156Z,9.50
2023-05-20T08:35:09.652Z,8.75
2023-05-20T08:37:35.978Z,9.48
2023-05-20T08:40:07.798Z,9.77
2023-05-20T08:45:04.521Z,8.30
2023-05-20T08:47:33.877Z,8.98
2023-05-20T08:50:02.996Z,9.18
2023-05-20T08:52:29.285Z,9.40
2023-05-20T08:54:55.623Z,9.82
2023-05-20T08:57:21.872Z,9.73
2023-05-20T08:59:48.145Z,9.52
2023-05-20T09:02:14.502Z,10.80
2023-05-20T09:04:45.557Z,9.68
2023-05-20T09:07:17.137Z,10.57
2023-05-20T09:09:46.812Z,10.50
2023-05-20T09:12:16.508Z,11.02
2023-05-20T09:14:45.138Z,10.25
2023-05-20T09:17:11.399Z,10.95
2023-05-20T09:19:38.693Z,11.57
2023-05-20T09:22:07.705Z,10.45
2023-05-20T09:24:34.105Z,11.77
2023-05-20T09:27:01.825Z,12.10
2023-05-20T09:29:28.081Z,11.70
2023-05-20T09:31:54.394Z,12.57
2023-05-20T09:34:20.744Z,11.85
2023-05-20T09:36:46.990Z,13.27
2023-05-20T09:39:13.234Z,12.75
2023-05-20T09:41:39.539Z,12.77
2023-05-20T09:44:05.853Z,14.98
2023-05-20T09:46:32.216Z,13.50
2023-05-20T09:49:06.582Z,13.73
2023-05-20T09:51:32.882Z,14.05
2023-05-20T09:53:59.269Z,13.90
2023-05-20T09:56:25.558Z,14.02
2023-05-20T09:58:51.850Z,15.23
2023-05-20T10:01:18.186Z,15.85
2023-05-20T10:03:47.154Z,16.00
2023-05-20T10:06:13.699Z,15.60
2023-05-20T10:08:41.120Z,15.95
2023-05-20T10:11:07.510Z,18.20
2023-05-20T10:13:33.760Z,18.00
2023-05-20T10:16:00.234Z,16.65
2023-05-20T10:18:26.577Z,16.67
2023-05-20T10:23:41.326Z,17.15
2023-05-20T10:26:07.585Z,17.08
2023-05-20T10:28:33.935Z,18.95
2023-05-20T10:31:00.627Z,18.95
2023-05-20T10:33:28.828Z,18.98
2023-05-20T10:35:58.929Z,18.27
2023-05-20T10:38:25.186Z,17.35
2023-05-20T10:40:51.479Z,18.65
2023-05-20T10:43:17.761Z,17.75
2023-05-20T10:45:47.176Z,17.67
2023-05-20T10:48:13.460Z,16.30
2023-05-20T10:50:39.833Z,195.02
2023-05-20T10:53:07.000Z,248.95
2023-05-20T10:55:35.906Z,196.85
2023-05-20T10:58:02.283Z,175.40
2023-05-20T11:00:31.178Z,164.23
2023-05-20T11:02:57.502Z,148.40
2023-05-20T11:05:28.482Z,137.88
2023-05-20T11:07:54.814Z,129.20
2023-05-20T11:10:23.778Z,117.78
2023-05-20T11:12:50.087Z,112.07
2023-05-20T11:15:16.522Z,104.88
2023-05-20T11:17:48.393Z,83.63
2023-05-20T11:20:14.737Z,74.80
2023-05-20T11:22:43.301Z,61.47
2023-05-20T11:25:10.975Z,59.25
2023-05-20T11:27:42.878Z,54.22
2023-05-20T11:30:09.186Z,46.88
2023-05-20T11:32:41.442Z,43.45
2023-05-20T11:35:07.722Z,38.63
2023-05-20T11:37:34.133Z,38.05
2023-05-20T11:40:00.481Z,33.55
2023-05-20T11:42:28.723Z,31.45
2023-05-20T11:47:30.176Z,31.45
2023-05-20T11:49:56.500Z,31.15
2023-05-20T11:52:22.800Z,85.78
2023-05-20T11:54:49.070Z,581.42
2023-05-20T11:57:15.427Z,438.17
2023-05-20T11:59:41.711Z,318.42
2023-05-20T12:02:15.895Z,275.27
2023-05-20T12:04:42.367Z,241.88
2023-05-20T12:07:08.648Z,216.02
2023-05-20T12:09:34.991Z,201.77
2023-05-20T12:12:01.270Z,190.63
2023-05-20T12:14:27.594Z,322.80
2023-05-20T12:16:54.047Z,326.40
2023-05-20T12:19:25.654Z,299.88
2023-05-20T12:21:52.017Z,286.42
2023-05-20T12:24:18.267Z,273.58
2023-05-20T12:26:47.187Z,252.93
2023-05-20T12:29:13.466Z,240.48
2023-05-20T12:31:43.100Z,227.00
2023-05-20T12:34:09.705Z,207.40
2023-05-20T12:36:36.062Z,210.70
2023-05-20T12:39:07.561Z,197.35
2023-05-20T12:41:34.339Z,182.80
2023-05-20T12:44:02.040Z,176.70
2023-05-20T12:46:30.485Z,174.52
2023-05-20T12:49:03.034Z,157.75
2023-05-20T12:51:29.309Z,150.15
2023-05-20T12:53:55.588Z,150.77
2023-05-20T12:56:24.128Z,142.88
2023-05-20T12:58:50.668Z,137.60
2023-05-20T13:01:16.949Z,134.23
2023-05-20T13:03:44.278Z,129.43
2023-05-20T13:06:15.182Z,239.82
2023-05-20T13:08:41.477Z,271.25
2023-05-20T13:11:12.424Z,270.30
2023-05-20T13:13:39.443Z,238.68
2023-05-20T13:16:08.390Z,236.40
2023-05-20T13:18:34.720Z,229.70
2023-05-20T13:21:01.130Z,215.60
2023-05-20T13:23:32.242Z,205.77
2023-05-20T13:26:03.800Z,187.55
2023-05-20T13:28:30.086Z,185.95
2023-05-20T13:30:56.394Z,180.80
2023-05-20T13:33:25.779Z,166.20
2023-05-20T13:35:52.054Z,160.30
2023-05-20T13:38:18.315Z,150.75
2023-05-20T13:40:44.574Z,154.80
2023-05-20T13:43:10.925Z,149.98
2023-05-20T13:45:37.274Z,147.98
2023-05-20T13:48:03.549Z,304.75
2023-05-20T13:50:29.900Z,317.40
2023-05-20T13:52:56.157Z,283.58
2023-05-20T13:55:24.616Z,268.75
2023-05-20T13:57:51.961Z,255.70
2023-05-20T14:00:18.426Z,249.57
2023-05-20T14:02:44.845Z,248.70
2023-05-20T14:05:13.338Z,234.70
2023-05-20T14:07:42.408Z,228.07
2023-05-20T14:10:12.130Z,227.18
2023-05-20T14:12:39.428Z,220.90
2023-05-20T14:15:05.667Z,204.93
2023-05-20T14:17:32.047Z,208.77
2023-05-20T14:20:02.614Z,235.73
2023-05-20T14:22:29.448Z,287.65
2023-05-20T14:24:55.689Z,345.13
2023-05-20T14:27:22.015Z,312.77
2023-05-20T14:29:51.891Z,307.40
2023-05-20T14:32:19.313Z,299.45
2023-05-20T14:34:46.805Z,299.13
2023-05-20T14:37:13.137Z,277.45
2023-05-20T14:39:44.042Z,273.92
2023-05-20T14:42:17.199Z,265.65
2023-05-20T14:44:43.469Z,232.52
2023-05-20T14:47:15.663Z,170.73
2023-05-20T14:52:12.249Z,94.80
2023-05-20T14:54:38.625Z,247.25
2023-05-20T14:57:07.111Z,137.40
2023-05-20T14:59:33.440Z,162.68
2023-05-20T15:01:59.802Z,97.18
2023-05-20T15:04:26.099Z,79.95
2023-05-20T15:06:52.413Z,75.22
2023-05-20T15:09:18.694Z,79.10
2023-05-20T15:11:47.887Z,68.50
2023-05-20T15:14:14.148Z,66.28
2023-05-20T15:16:41.947Z,67.20
2023-05-20T15:19:14.756Z,65.70
2023-05-20T15:21:41.022Z,65.05
2023-05-20T15:24:10.380Z,63.45
2023-05-20T15:26:36.628Z,63.40
2023-05-20T15:29:05.419Z,60.85
2023-05-20T15:31:31.678Z,63.00
2023-05-20T15:34:00.355Z,58.42
2023-05-20T15:36:27.091Z,56.60
2023-05-20T15:38:53.370Z,55.25
2023-05-20T15:41:19.720Z,54.75
2023-05-20T15:43:45.996Z,53.58
2023-05-20T15:46:12.323Z,52.72
2023-05-20T15:48:38.645Z,52.60
2023-05-20T15:51:06.378Z,50.75
2023-05-20T15:53:32.661Z,51.08
2023-05-20T15:55:58.918Z,50.13
2023-05-20T15:58:25.378Z,46.70
2023-05-20T16:00:51.648Z,47.60
2023-05-20T16:03:17.977Z,45.95
2023-05-20T16:05:48.235Z,44.67
2023-05-20T16:08:14.508Z,43.85
2023-05-20T16:10:47.109Z,41.60
2023-05-20T16:13:16.499Z,42.58
2023-05-20T16:15:42.896Z,40.53
2023-05-20T16:18:15.033Z,42.38
2023-05-20T16:20:43.569Z,39.80
2023-05-20T16:23:09.801Z,38.60
2023-05-20T16:25:36.075Z,38.17
2023-05-20T16:28:05.609Z,37.17
2023-05-20T16:30:35.885Z,37.67
2023-05-20T16:33:02.485Z,34.85
2023-05-20T16:35:33.967Z,33.78
2023-05-20T16:38:03.852Z,34.15
2023-05-20T16:40:30.076Z,33.60
2023-05-20T16:42:57.026Z,34.00
2023-05-20T16:45:28.357Z,31.67
2023-05-20T16:47:54.705Z,31.17
2023-05-20T16:50:23.279Z,31.02
2023-05-20T16:52:49.553Z,29.77
2023-05-20T16:55:17.204Z,30.30
2023-05-20T16:57:43.480Z,28.88
2023-05-20T17:00:09.739Z,28.38
2023-05-20T17:02:36.172Z,28.40
2023-05-20T17:05:02.567Z,27.98
2023-05-20T17:07:29.708Z,27.92
2023-05-20T17:09:55.981Z,28.67
2023-05-20T17:12:22.252Z,26.55
2023-05-20T17:14:48.554Z,26.27
2023-05-20T17:17:15.609Z,26.52
2023-05-20T17:19:41.909Z,26.40
2023-05-20T17:22:11.432Z,25.70
2023-05-20T17:24:37.678Z,25.55
2023-05-20T17:27:04.061Z,25.80
2023-05-20T17:29:30.317Z,24.05
2023-05-20T17:31:56.690Z,23.60
2023-05-20T17:34:22.991Z,24.42
2023-05-20T17:36:49.242Z,24.25
2023-05-20T17:39:15.777Z,23.88
2023-05-20T17:41:43.579Z,23.60
2023-05-20T17:44:09.938Z,23.70
2023-05-20T17:46:36.258Z,24.00
2023-05-20T17:49:02.570Z,22.92
2023-05-20T17:51:28.833Z,22.95
2023-05-20T17:53:55.268Z,22.50
2023-05-20T17:56:21.498Z,22.25
2023-05-20T17:58:50.264Z,22.27
2023-05-20T18:01:16.579Z,21.90
2023-05-20T18:03:43.016Z,22.50
2023-05-20T18:06:09.799Z,21.42
2023-05-20T18:08:36.046Z,22.48
2023-05-20T18:11:02.427Z,21.50
2023-05-20T18:13:28.717Z,21.60
2023-05-20T18:15:56.890Z,21.40
2023-05-20T18:18:23.284Z,21.88
2023-05-20T18:20:49.668Z,21.63
2023-05-20T18:23:16.518Z,20.90
2023-05-20T18:25:42.991Z,21.33
2023-05-20T18:28:09.302Z,21.10
2023-05-20T18:30:35.881Z,20.77
2023-05-20T18:33:02.525Z,19.98
2023-05-20T18:35:28.878Z,19.02
2023-05-20T18:37:58.446Z,20.45
2023-05-20T18:40:24.796Z,19.95
2023-05-20T18:42:51.075Z,20.25
2023-05-20T18:45:18.118Z,20.13
2023-05-20T18:47:44.413Z,20.20
2023-05-20T18:50:11.012Z,19.17
2023-05-20T18:52:37.283Z,19.90
2023-05-20T18:55:04.889Z,19.30
2023-05-20T18:57:31.153Z,18.38
2023-05-20T18:59:57.964Z,19.17
2023-05-20T19:02:25.317Z,18.92
2023-05-20T19:04:52.331Z,18.50
2023-05-20T19:07:18.897Z,18.73
2023-05-20T19:09:45.143Z,18.38
2023-05-20T19:12:11.493Z,18.00
2023-05-20T19:14:39.187Z,18.00
2023-05-20T19:17:05.556Z,18.02
2023-05-20T19:19:31.894Z,17.08
2023-05-20T19:21:58.296Z,18.90
2023-05-20T19:24:24.557Z,18.02
2023-05-20T19:26:50.826Z,17.77
2023-05-20T19:29:17.077Z,17.42
2023-05-20T19:31:44.453Z,17.10
2023-05-20T19:34:11.910Z,17.23
2023-05-20T19:36:38.185Z,17.15
2023-05-20T19:39:04.462Z,16.23
2023-05-20T19:41:30.752Z,17.70
2023-05-20T19:43:58.068Z,17.02
2023-05-20T19:46:24.434Z,17.05
2023-05-20T19:48:50.722Z,17.10
2023-05-20T19:51:17.163Z,17.60
2023-05-20T19:53:44.742Z,16.20
2023-05-20T19:56:11.094Z,17.63
2023-05-20T19:58:44.695Z,16.73
2023-05-20T20:01:10.963Z,15.98
2023-05-20T20:03:41.012Z,17.02
2023-05-20T20:06:07.271Z,16.40
2023-05-20T20:08:33.615Z,17.20
2023-05-20T20:11:05.150Z,17.33
2023-05-20T20:13:31.427Z,17.77
2023-05-20T20:15:58.232Z,16.83
2023-05-20T20:18:24.510Z,17.83
2023-05-20T20:20:51.752Z,16.77
2023-05-20T20:23:18.059Z,16.13
2023-05-20T20:25:46.287Z,16.98
2023-05-20T20:28:13.695Z,15.75
2023-05-20T20:30:39.931Z,16.63
2023-05-20T20:33:10.246Z,15.93
2023-05-20T20:35:36.738Z,16.92
2023-05-20T20:38:03.178Z,16.38
2023-05-20T20:40:34.441Z,15.50
2023-05-20T20:43:03.787Z,16.90
2023-05-20T20:45:30.030Z,16.90
2023-05-20T20:47:56.370Z,16.75
2023-05-20T20:50:22.670Z,16.30
2023-05-20T20:52:49.261Z,14.70
2023-05-20T20:55:19.989Z,16.27
2023-05-20T20:57:46.263Z,16.45
2023-05-20T21:00:15.837Z,15.40
2023-05-20T21:02:42.242Z,16.00
2023-05-20T21:05:08.529Z,16.67
2023-05-20T21:07:34.783Z,15.27
2023-05-20T21:10:05.873Z,16.50
2023-05-20T21:12:34.039Z,15.77
2023-05-20T21:15:03.999Z,16.33
2023-05-20T21:17:31.794Z,14.93
2023-05-20T21:19:58.213Z,15.27
2023-05-20T21:22:24.579Z,15.38
2023-05-20T21:24:50.825Z,15.82
2023-05-20T21:27:17.074Z,14.68
2023-05-20T21:29:43.326Z,15.57
2023-05-20T21:32:10.571Z,15.80
2023-05-20T21:34:41.795Z,14.70
2023-05-20T21:37:08.063Z,15.98
2023-05-20T21:39:35.788Z,15.27
2023-05-20T21:42:02.061Z,15.25
2023-05-20T21:44:31.089Z,14.88
2023-05-20T21:46:57.356Z,15.77
2023-05-20T21:49:24.250Z,14.40
2023-05-20T21:51:50.511Z,15.77
2023-05-20T21:54:16.886Z,14.40
2023-05-20T21:56:48.245Z,16.15
2023-05-20T21:59:18.406Z,15.38
2023-05-20T22:01:44.788Z,15.52
2023-05-20T22:04:13.416Z,15.27
2023-05-20T22:06:39.764Z,15.10
2023-05-20T22:09:06.073Z,15.30
2023-05-20T22:11:32.335Z,15.15
2023-05-20T22:14:01.446Z,16.02
2023-05-20T22:16:27.780Z,15.98
2023-05-20T22:18:54.187Z,15.98
2023-05-20T22:21:20.513Z,16.05
2023-05-20T22:23:47.865Z,15.05
2023-05-20T22:26:15.948Z,15.13
2023-05-20T22:28:43.463Z,15.00
2023-05-20T22:31:09.759Z,15.90
2023-05-20T22:33:36.085Z,14.38
2023-05-20T22:36:02.335Z,14.68
2023-05-20T22:38:28.574Z,15.30
2023-05-20T22:40:54.882Z,15.20
2023-05-20T22:43:23.202Z,14.90
2023-05-20T22:45:49.546Z,15.57
2023-05-20T22:48:19.986Z,16.10
2023-05-20T22:50:46.351Z,15.20
2023-05-20T22:53:16.539Z,15.15
2023-05-20T22:55:44.030Z,15.18
2023-05-20T22:58:14.884Z,14.55
2023-05-20T23:00:41.162Z,13.35
2023-05-20T23:03:07.559Z,14.85
2023-05-20T23:05:34.080Z,14.27
2023-05-20T23:08:00.884Z,15.23
2023-05-20T23:10:27.134Z,16.35
2023-05-20T23:12:54.621Z,14.55
2023-05-20T23:15:22.733Z,15.70
2023-05-20T23:17:51.403Z,15.70
2023-05-20T23:20:21.109Z,15.05
2023-05-20T23:22:47.376Z,14.98
2023-05-20T23:25:13.792Z,14.68
2023-05-20T23:27:50.106Z,14.23
2023-05-20T23:30:17.720Z,14.57
2023-05-20T23:32:44.123Z,14.07
2023-05-20T23:35:11.178Z,13.88
2023-05-20T23:37:38.014Z,15.32
2023-05-20T23:40:04.272Z,14.27
2023-05-20T23:42:33.889Z,14.35
2023-05-20T23:45:01.862Z,14.02
2023-05-20T23:47:35.885Z,14.27
2023-05-20T23:50:04.126Z,15.75
2023-05-20T23:52:30.592Z,14.70
2023-05-20T23:54:56.840Z,15.30
2023-05-20T23:57:26.533Z,15.13
2023-05-20T23:59:52.774Z,14.75
